sensor_id;sensor_type;location;lat;lon;timestamp;pressure;altitude;pressure_sealevel;temperature;humidity
54369;BME280;40266;52.434;17.056;2023-05-25T00:04:33;101221.58;;;11.91;99.00
54369;BME280;40266;52.434;17.056;2023-05-25T00:07:34;101224.36;;;11.92;99.00
54369;BME280;40266;52.434;17.056;2023-05-25T00:10:30;101223.12;;;11.93;98.98
54369;BME280;40266;52.434;17.056;2023-05-25T00:13:53;101223.63;;;11.93;98.95
54369;BME280;40266;52.434;17.056;2023-05-25T00:16:41;101227.30;;;11.94;98.83
54369;BME280;40266;52.434;17.056;2023-05-25T00:19:53;101223.47;;;11.93;98.83
54369;BME280;40266;52.434;17.056;2023-05-25T00:22:57;101225.40;;;11.92;99.08
54369;BME280;40266;52.434;17.056;2023-05-25T00:26:04;101228.03;;;11.92;98.85
54369;BME280;40266;52.434;17.056;2023-05-25T00:29:26;101226.99;;;11.92;98.96
54369;BME280;40266;52.434;17.056;2023-05-25T00:33:04;101228.04;;;11.92;98.90
54369;BME280;40266;52.434;17.056;2023-05-25T00:36:07;101227.67;;;11.93;98.88
54369;BME280;40266;52.434;17.056;2023-05-25T00:39:33;101228.71;;;11.94;99.10
54369;BME280;40266;52.434;17.056;2023-05-25T00:42:37;101223.44;;;11.95;98.85
54369;BME280;40266;52.434;17.056;2023-05-25T00:45:45;101226.59;;;11.95;98.96
54369;BME280;40266;52.434;17.056;2023-05-25T00:49:26;101225.70;;;11.96;98.75
54369;BME280;40266;52.434;17.056;2023-05-25T00:52:23;101223.08;;;11.96;98.95
54369;BME280;40266;52.434;17.056;2023-05-25T00:58:45;101229.17;;;11.99;98.91
54369;BME280;40266;52.434;17.056;2023-05-25T01:01:57;101223.95;;;11.97;98.70
54369;BME280;40266;52.434;17.056;2023-05-25T01:04:48;101225.52;;;11.97;98.74
54369;BME280;40266;52.434;17.056;2023-05-25T01:07:35;101228.34;;;11.95;98.80
54369;BME280;40266;52.434;17.056;2023-05-25T01:10:21;101230.95;;;11.96;98.62
54369;BME280;40266;52.434;17.056;2023-05-25T01:13:06;101232.70;;;11.97;98.71
54369;BME280;40266;52.434;17.056;2023-05-25T01:15:52;101232.67;;;11.98;98.59
54369;BME280;40266;52.434;17.056;2023-05-25T01:18:35;101234.23;;;11.99;98.63
54369;BME280;40266;52.434;17.056;2023-05-25T01:21:23;101236.53;;;11.98;98.59
54369;BME280;40266;52.434;17.056;2023-05-25T01:24:17;101235.65;;;11.98;98.67
54369;BME280;40266;52.434;17.056;2023-05-25T01:27:25;101237.74;;;11.98;98.70
54369;BME280;40266;52.434;17.056;2023-05-25T01:30:13;101241.77;;;11.98;98.70
54369;BME280;40266;52.434;17.056;2023-05-25T01:32:58;101244.40;;;11.98;98.76
54369;BME280;40266;52.434;17.056;2023-05-25T01:35:44;101244.59;;;11.97;98.60
54369;BME280;40266;52.434;17.056;2023-05-25T01:38:27;101246.00;;;11.97;98.57
54369;BME280;40266;52.434;17.056;2023-05-25T01:41:10;101244.27;;;11.96;98.71
54369;BME280;40266;52.434;17.056;2023-05-25T01:43:53;101241.27;;;11.96;98.55
54369;BME280;40266;52.434;17.056;2023-05-25T01:46:37;101240.05;;;11.96;98.68
54369;BME280;40266;52.434;17.056;2023-05-25T01:49:27;101242.15;;;11.96;98.57
54369;BME280;40266;52.434;17.056;2023-05-25T01:52:25;101238.14;;;11.96;98.62
54369;BME280;40266;52.434;17.056;2023-05-25T01:55:17;101233.42;;;11.95;98.49
54369;BME280;40266;52.434;17.056;2023-05-25T01:58:01;101233.42;;;11.95;98.54
54369;BME280;40266;52.434;17.056;2023-05-25T02:00:46;101235.88;;;11.95;98.44
54369;BME280;40266;52.434;17.056;2023-05-25T02:03:31;101232.73;;;11.94;98.47
54369;BME280;40266;52.434;17.056;2023-05-25T02:06:15;101230.30;;;11.93;98.36
54369;BME280;40266;52.434;17.056;2023-05-25T02:08:58;101232.08;;;11.91;98.26
54369;BME280;40266;52.434;17.056;2023-05-25T02:11:41;101229.13;;;11.88;98.06
54369;BME280;40266;52.434;17.056;2023-05-25T02:14:24;101228.83;;;11.83;97.86
54369;BME280;40266;52.434;17.056;2023-05-25T02:17:08;101230.82;;;11.78;97.87
54369;BME280;40266;52.434;17.056;2023-05-25T02:19:54;101230.38;;;11.73;97.73
54369;BME280;40266;52.434;17.056;2023-05-25T02:22:37;101231.67;;;11.67;97.75
54369;BME280;40266;52.434;17.056;2023-05-25T02:25:22;101232.96;;;11.61;97.65
54369;BME280;40266;52.434;17.056;2023-05-25T02:28:04;101230.23;;;11.56;97.71
54369;BME280;40266;52.434;17.056;2023-05-25T02:30:47;101233.09;;;11.51;97.65
54369;BME280;40266;52.434;17.056;2023-05-25T02:33:30;101240.33;;;11.46;97.86
54369;BME280;40266;52.434;17.056;2023-05-25T02:36:13;101244.55;;;11.43;97.78
54369;BME280;40266;52.434;17.056;2023-05-25T02:38:56;101246.36;;;11.38;97.81
54369;BME280;40266;52.434;17.056;2023-05-25T02:41:39;101250.27;;;11.34;97.79
54369;BME280;40266;52.434;17.056;2023-05-25T02:44:23;101254.67;;;11.30;97.65
54369;BME280;40266;52.434;17.056;2023-05-25T02:47:06;101254.02;;;11.26;97.75
54369;BME280;40266;52.434;17.056;2023-05-25T02:49:49;101257.39;;;11.21;97.69
54369;BME280;40266;52.434;17.056;2023-05-25T02:52:32;101252.18;;;11.17;97.75
54369;BME280;40266;52.434;17.056;2023-05-25T02:55:15;101258.33;;;11.15;97.82
54369;BME280;40266;52.434;17.056;2023-05-25T02:58:00;101256.63;;;11.12;97.84
54369;BME280;40266;52.434;17.056;2023-05-25T03:01:16;101259.67;;;11.04;97.77
54369;BME280;40266;52.434;17.056;2023-05-25T03:04:05;101259.36;;;10.99;97.72
54369;BME280;40266;52.434;17.056;2023-05-25T03:06:51;101256.79;;;10.95;97.71
54369;BME280;40266;52.434;17.056;2023-05-25T03:09:34;101255.25;;;10.91;97.76
54369;BME280;40266;52.434;17.056;2023-05-25T03:12:18;101253.54;;;10.88;97.97
54369;BME280;40266;52.434;17.056;2023-05-25T03:15:01;101249.86;;;10.87;98.09
54369;BME280;40266;52.434;17.056;2023-05-25T03:17:44;101251.81;;;10.87;98.15
54369;BME280;40266;52.434;17.056;2023-05-25T03:20:28;101253.02;;;10.86;98.28
54369;BME280;40266;52.434;17.056;2023-05-25T03:23:11;101253.02;;;10.87;98.36
54369;BME280;40266;52.434;17.056;2023-05-25T03:25:55;101253.53;;;10.87;98.21
54369;BME280;40266;52.434;17.056;2023-05-25T03:28:38;101253.88;;;10.88;98.28
54369;BME280;40266;52.434;17.056;2023-05-25T03:31:22;101255.79;;;10.89;98.38
54369;BME280;40266;52.434;17.056;2023-05-25T03:34:05;101260.85;;;10.90;98.37
54369;BME280;40266;52.434;17.056;2023-05-25T03:36:50;101265.04;;;10.91;98.40
54369;BME280;40266;52.434;17.056;2023-05-25T03:39:33;101269.40;;;10.91;98.48
54369;BME280;40266;52.434;17.056;2023-05-25T03:42:16;101271.33;;;10.90;98.41
54369;BME280;40266;52.434;17.056;2023-05-25T03:44:59;101273.62;;;10.90;98.38
54369;BME280;40266;52.434;17.056;2023-05-25T03:47:42;101272.38;;;10.90;98.36
54369;BME280;40266;52.434;17.056;2023-05-25T03:50:29;101275.34;;;10.92;98.28
54369;BME280;40266;52.434;17.056;2023-05-25T03:53:11;101276.54;;;10.95;98.52
54369;BME280;40266;52.434;17.056;2023-05-25T03:55:54;101280.18;;;10.98;98.60
54369;BME280;40266;52.434;17.056;2023-05-25T03:58:38;101283.29;;;11.02;98.72
54369;BME280;40266;52.434;17.056;2023-05-25T04:01:21;101286.22;;;11.06;98.72
54369;BME280;40266;52.434;17.056;2023-05-25T04:04:04;101291.59;;;11.10;99.00
54369;BME280;40266;52.434;17.056;2023-05-25T04:06:48;101294.67;;;11.16;99.21
54369;BME280;40266;52.434;17.056;2023-05-25T04:09:31;101297.92;;;11.25;99.27
54369;BME280;40266;52.434;17.056;2023-05-25T04:12:14;101300.98;;;11.32;99.51
54369;BME280;40266;52.434;17.056;2023-05-25T04:14:57;101296.17;;;11.41;99.46
54369;BME280;40266;52.434;17.056;2023-05-25T04:17:41;101291.34;;;11.50;99.43
54369;BME280;40266;52.434;17.056;2023-05-25T04:20:25;101289.14;;;11.59;99.34
54369;BME280;40266;52.434;17.056;2023-05-25T04:23:08;101288.15;;;11.69;99.21
54369;BME280;40266;52.434;17.056;2023-05-25T04:25:51;101291.79;;;11.87;98.85
54369;BME280;40266;52.434;17.056;2023-05-25T04:28:35;101292.03;;;12.10;98.60
54369;BME280;40266;52.434;17.056;2023-05-25T04:31:42;101294.48;;;12.45;98.00
54369;BME280;40266;52.434;17.056;2023-05-25T04:34:52;101288.66;;;12.60;97.43
54369;BME280;40266;52.434;17.056;2023-05-25T04:37:38;101293.67;;;12.64;97.21
54369;BME280;40266;52.434;17.056;2023-05-25T04:40:22;101298.13;;;12.70;96.44
54369;BME280;40266;52.434;17.056;2023-05-25T04:43:05;101294.02;;;12.75;96.44
54369;BME280;40266;52.434;17.056;2023-05-25T04:45:48;101293.91;;;12.82;96.06
54369;BME280;40266;52.434;17.056;2023-05-25T04:48:33;101292.76;;;12.87;95.80
54369;BME280;40266;52.434;17.056;2023-05-25T04:51:17;101290.55;;;12.94;95.42
54369;BME280;40266;52.434;17.056;2023-05-25T04:53:59;101288.89;;;12.99;94.67
54369;BME280;40266;52.434;17.056;2023-05-25T04:56:43;101288.13;;;13.02;94.53
54369;BME280;40266;52.434;17.056;2023-05-25T04:59:26;101291.04;;;13.06;94.26
54369;BME280;40266;52.434;17.056;2023-05-25T05:02:09;101289.17;;;13.12;93.94
54369;BME280;40266;52.434;17.056;2023-05-25T05:04:52;101292.38;;;13.30;93.51
54369;BME280;40266;52.434;17.056;2023-05-25T05:07:35;101290.80;;;13.57;93.27
54369;BME280;40266;52.434;17.056;2023-05-25T05:10:19;101291.78;;;14.03;92.64
54369;BME280;40266;52.434;17.056;2023-05-25T05:13:07;101291.98;;;14.41;90.85
54369;BME280;40266;52.434;17.056;2023-05-25T05:15:53;101293.82;;;15.54;88.83
54369;BME280;40266;52.434;17.056;2023-05-25T05:18:36;101292.34;;;16.41;87.15
54369;BME280;40266;52.434;17.056;2023-05-25T05:21:19;101297.09;;;16.90;85.07
54369;BME280;40266;52.434;17.056;2023-05-25T05:24:05;101294.66;;;17.15;83.08
54369;BME280;40266;52.434;17.056;2023-05-25T05:26:48;101289.89;;;16.95;82.04
54369;BME280;40266;52.434;17.056;2023-05-25T05:29:38;101290.46;;;16.72;80.87
54369;BME280;40266;52.434;17.056;2023-05-25T05:32:21;101293.48;;;16.38;80.65
54369;BME280;40266;52.434;17.056;2023-05-25T05:35:06;101293.56;;;16.13;80.75
54369;BME280;40266;52.434;17.056;2023-05-25T05:37:55;101294.46;;;15.94;80.13
54369;BME280;40266;52.434;17.056;2023-05-25T05:40:38;101293.20;;;15.78;80.07
54369;BME280;40266;52.434;17.056;2023-05-25T05:43:22;101298.87;;;15.70;80.19
54369;BME280;40266;52.434;17.056;2023-05-25T05:46:05;101302.02;;;15.64;80.53
54369;BME280;40266;52.434;17.056;2023-05-25T05:48:48;101300.78;;;15.64;80.37
54369;BME280;40266;52.434;17.056;2023-05-25T05:51:31;101296.77;;;15.70;79.41
54369;BME280;40266;52.434;17.056;2023-05-25T05:54:15;101293.76;;;15.89;79.78
54369;BME280;40266;52.434;17.056;2023-05-25T05:56:58;101287.61;;;16.45;78.29
54369;BME280;40266;52.434;17.056;2023-05-25T05:59:41;101291.63;;;17.26;76.37
54369;BME280;40266;52.434;17.056;2023-05-25T06:02:24;101289.92;;;17.54;75.12
54369;BME280;40266;52.434;17.056;2023-05-25T06:05:08;101291.43;;;17.71;74.08
54369;BME280;40266;52.434;17.056;2023-05-25T06:07:52;101290.10;;;18.15;72.75
54369;BME280;40266;52.434;17.056;2023-05-25T06:10:37;101292.91;;;18.47;71.81
54369;BME280;40266;52.434;17.056;2023-05-25T06:13:20;101298.80;;;18.19;70.88
54369;BME280;40266;52.434;17.056;2023-05-25T06:16:03;101301.42;;;17.77;70.26
54369;BME280;40266;52.434;17.056;2023-05-25T06:18:46;101303.82;;;17.36;70.76
54369;BME280;40266;52.434;17.056;2023-05-25T06:21:29;101304.86;;;17.01;71.25
54369;BME280;40266;52.434;17.056;2023-05-25T06:24:13;101306.77;;;16.80;72.57
54369;BME280;40266;52.434;17.056;2023-05-25T06:26:56;101307.83;;;16.75;73.30
54369;BME280;40266;52.434;17.056;2023-05-25T06:29:40;101314.36;;;16.69;73.28
54369;BME280;40266;52.434;17.056;2023-05-25T06:32:23;101316.83;;;16.63;73.19
54369;BME280;40266;52.434;17.056;2023-05-25T06:35:06;101318.49;;;16.61;73.66
54369;BME280;40266;52.434;17.056;2023-05-25T06:37:50;101319.87;;;16.67;74.21
54369;BME280;40266;52.434;17.056;2023-05-25T06:40:34;101321.75;;;16.63;72.77
54369;BME280;40266;52.434;17.056;2023-05-25T06:43:18;101326.11;;;16.54;72.52
54369;BME280;40266;52.434;17.056;2023-05-25T06:46:14;101326.07;;;16.50;72.43
54369;BME280;40266;52.434;17.056;2023-05-25T06:49:00;101323.14;;;16.48;72.61
54369;BME280;40266;52.434;17.056;2023-05-25T06:51:43;101325.47;;;16.52;73.30
54369;BME280;40266;52.434;17.056;2023-05-25T06:54:26;101331.54;;;16.56;72.90
54369;BME280;40266;52.434;17.056;2023-05-25T06:57:09;101331.49;;;16.52;72.77
54369;BME280;40266;52.434;17.056;2023-05-25T06:59:52;101335.47;;;16.54;73.01
54369;BME280;40266;52.434;17.056;2023-05-25T07:02:35;101334.84;;;16.57;72.80
54369;BME280;40266;52.434;17.056;2023-05-25T07:05:18;101328.42;;;16.64;73.04
54369;BME280;40266;52.434;17.056;2023-05-25T07:08:01;101329.88;;;16.69;72.30
54369;BME280;40266;52.434;17.056;2023-05-25T07:10:44;101327.15;;;16.66;72.17
54369;BME280;40266;52.434;17.056;2023-05-25T07:13:30;101325.98;;;16.69;71.83
54369;BME280;40266;52.434;17.056;2023-05-25T07:16:13;101324.52;;;16.76;72.05
54369;BME280;40266;52.434;17.056;2023-05-25T07:18:56;101323.08;;;16.78;71.77
54369;BME280;40266;52.434;17.056;2023-05-25T07:21:42;101325.98;;;16.81;71.62
54369;BME280;40266;52.434;17.056;2023-05-25T07:24:24;101330.52;;;16.83;70.83
54369;BME280;40266;52.434;17.056;2023-05-25T07:27:07;101326.34;;;16.81;70.44
54369;BME280;40266;52.434;17.056;2023-05-25T07:29:51;101325.94;;;16.93;70.80
54369;BME280;40266;52.434;17.056;2023-05-25T07:32:34;101324.34;;;17.04;71.29
54369;BME280;40266;52.434;17.056;2023-05-25T07:35:17;101326.04;;;17.11;71.26
54369;BME280;40266;52.434;17.056;2023-05-25T07:38:01;101328.08;;;17.14;70.48
54369;BME280;40266;52.434;17.056;2023-05-25T07:40:46;101326.55;;;17.17;69.99
54369;BME280;40266;52.434;17.056;2023-05-25T07:43:30;101327.04;;;17.28;70.15
54369;BME280;40266;52.434;17.056;2023-05-25T07:46:13;101325.40;;;17.40;69.47
54369;BME280;40266;52.434;17.056;2023-05-25T07:48:58;101332.16;;;17.43;68.40
54369;BME280;40266;52.434;17.056;2023-05-25T07:51:42;101333.98;;;17.41;67.79
54369;BME280;40266;52.434;17.056;2023-05-25T07:54:26;101337.21;;;17.40;67.69
54369;BME280;40266;52.434;17.056;2023-05-25T07:57:09;101340.00;;;17.41;67.55
54369;BME280;40266;52.434;17.056;2023-05-25T07:59:55;101337.30;;;17.52;67.50
54369;BME280;40266;52.434;17.056;2023-05-25T08:02:38;101342.14;;;17.56;67.07
54369;BME280;40266;52.434;17.056;2023-05-25T08:05:22;101339.47;;;17.61;67.49
54369;BME280;40266;52.434;17.056;2023-05-25T08:08:04;101346.06;;;17.69;67.42
54369;BME280;40266;52.434;17.056;2023-05-25T08:10:47;101343.02;;;17.75;66.46
54369;BME280;40266;52.434;17.056;2023-05-25T08:13:30;101341.94;;;17.76;65.69
54369;BME280;40266;52.434;17.056;2023-05-25T08:16:14;101340.77;;;17.79;66.19
54369;BME280;40266;52.434;17.056;2023-05-25T08:19:00;101344.14;;;17.89;66.57
54369;BME280;40266;52.434;17.056;2023-05-25T08:21:43;101344.10;;;18.22;65.58
54369;BME280;40266;52.434;17.056;2023-05-25T08:24:26;101343.06;;;18.93;63.86
54369;BME280;40266;52.434;17.056;2023-05-25T08:27:09;101338.65;;;19.55;63.28
54369;BME280;40266;52.434;17.056;2023-05-25T08:29:52;101338.84;;;20.69;61.58
54369;BME280;40266;52.434;17.056;2023-05-25T08:32:35;101333.99;;;22.29;58.74
54369;BME280;40266;52.434;17.056;2023-05-25T08:35:18;101336.36;;;23.72;55.21
54369;BME280;40266;52.434;17.056;2023-05-25T08:38:01;101335.71;;;24.28;51.90
54369;BME280;40266;52.434;17.056;2023-05-25T08:40:44;101336.68;;;24.71;50.02
54369;BME280;40266;52.434;17.056;2023-05-25T08:43:29;101336.30;;;25.50;47.45
54369;BME280;40266;52.434;17.056;2023-05-25T08:46:13;101334.25;;;26.42;47.25
54369;BME280;40266;52.434;17.056;2023-05-25T08:49:03;101329.92;;;26.60;45.26
54369;BME280;40266;52.434;17.056;2023-05-25T08:51:51;101328.20;;;25.66;45.84
54369;BME280;40266;52.434;17.056;2023-05-25T08:54:35;101334.41;;;24.62;46.23
54369;BME280;40266;52.434;17.056;2023-05-25T08:57:30;101338.79;;;23.70;46.81
54369;BME280;40266;52.434;17.056;2023-05-25T09:00:17;101342.77;;;23.10;48.04
54369;BME280;40266;52.434;17.056;2023-05-25T09:03:15;101341.10;;;22.56;47.99
54369;BME280;40266;52.434;17.056;2023-05-25T09:06:02;101339.82;;;22.06;49.28
54369;BME280;40266;52.434;17.056;2023-05-25T09:08:47;101340.10;;;21.74;49.84
54369;BME280;40266;52.434;17.056;2023-05-25T09:11:31;101337.17;;;21.49;51.02
54369;BME280;40266;52.434;17.056;2023-05-25T09:14:22;101340.86;;;21.39;52.16
54369;BME280;40266;52.434;17.056;2023-05-25T09:17:05;101344.27;;;21.14;51.73
54369;BME280;40266;52.434;17.056;2023-05-25T09:19:49;101343.70;;;20.72;52.23
54369;BME280;40266;52.434;17.056;2023-05-25T09:22:34;101343.77;;;20.48;52.37
54369;BME280;40266;52.434;17.056;2023-05-25T09:25:18;101336.34;;;20.48;53.55
54369;BME280;40266;52.434;17.056;2023-05-25T09:28:07;101340.86;;;20.58;53.10
54369;BME280;40266;52.434;17.056;2023-05-25T09:31:08;101342.91;;;20.59;53.39
54369;BME280;40266;52.434;17.056;2023-05-25T09:33:52;101342.66;;;20.64;53.43
54369;BME280;40266;52.434;17.056;2023-05-25T09:36:42;101340.52;;;20.65;52.94
54369;BME280;40266;52.434;17.056;2023-05-25T09:39:25;101338.70;;;20.65;53.75
54369;BME280;40266;52.434;17.056;2023-05-25T09:42:09;101344.48;;;20.63;53.70
54369;BME280;40266;52.434;17.056;2023-05-25T09:44:53;101347.27;;;20.56;53.45
54369;BME280;40266;52.434;17.056;2023-05-25T09:47:36;101348.86;;;20.49;52.92
54369;BME280;40266;52.434;17.056;2023-05-25T09:50:20;101347.96;;;20.50;53.37
54369;BME280;40266;52.434;17.056;2023-05-25T09:53:03;101344.38;;;20.73;54.34
54369;BME280;40266;52.434;17.056;2023-05-25T09:55:47;101344.90;;;20.98;54.13
54369;BME280;40266;52.434;17.056;2023-05-25T09:58:35;101353.95;;;21.01;53.96
54369;BME280;40266;52.434;17.056;2023-05-25T10:01:19;101354.53;;;21.00;53.63
54369;BME280;40266;52.434;17.056;2023-05-25T10:04:02;101355.29;;;20.86;53.19
54369;BME280;40266;52.434;17.056;2023-05-25T10:06:47;101353.80;;;20.80;53.51
54369;BME280;40266;52.434;17.056;2023-05-25T10:09:38;101351.81;;;20.70;53.02
54369;BME280;40266;52.434;17.056;2023-05-25T10:12:23;101354.29;;;20.62;54.00
54369;BME280;40266;52.434;17.056;2023-05-25T10:15:10;101357.16;;;20.58;54.00
54369;BME280;40266;52.434;17.056;2023-05-25T10:17:54;101350.81;;;20.65;53.46
54369;BME280;40266;52.434;17.056;2023-05-25T10:20:37;101351.27;;;20.73;53.72
54369;BME280;40266;52.434;17.056;2023-05-25T10:23:22;101351.88;;;20.87;53.38
54369;BME280;40266;52.434;17.056;2023-05-25T10:26:07;101359.73;;;20.85;52.66
54369;BME280;40266;52.434;17.056;2023-05-25T10:28:55;101364.85;;;20.75;52.67
54369;BME280;40266;52.434;17.056;2023-05-25T10:31:38;101367.35;;;20.68;52.48
54369;BME280;40266;52.434;17.056;2023-05-25T10:34:22;101368.02;;;20.57;52.71
54369;BME280;40266;52.434;17.056;2023-05-25T10:37:06;101368.46;;;20.59;52.85
54369;BME280;40266;52.434;17.056;2023-05-25T10:39:51;101364.47;;;20.68;52.87
54369;BME280;40266;52.434;17.056;2023-05-25T10:42:36;101365.35;;;20.76;53.49
54369;BME280;40266;52.434;17.056;2023-05-25T10:45:20;101369.10;;;20.75;52.73
54369;BME280;40266;52.434;17.056;2023-05-25T10:48:04;101373.40;;;20.71;53.31
54369;BME280;40266;52.434;17.056;2023-05-25T10:50:50;101367.73;;;20.78;53.11
54369;BME280;40266;52.434;17.056;2023-05-25T10:53:33;101360.48;;;20.84;52.75
54369;BME280;40266;52.434;17.056;2023-05-25T10:56:19;101357.46;;;20.81;51.74
54369;BME280;40266;52.434;17.056;2023-05-25T10:59:02;101368.58;;;20.75;52.80
54369;BME280;40266;52.434;17.056;2023-05-25T11:01:51;101365.70;;;20.76;53.35
54369;BME280;40266;52.434;17.056;2023-05-25T11:04:33;101362.98;;;20.77;53.23
54369;BME280;40266;52.434;17.056;2023-05-25T11:07:20;101365.14;;;20.80;53.17
54369;BME280;40266;52.434;17.056;2023-05-25T11:10:04;101365.30;;;20.77;52.53
54369;BME280;40266;52.434;17.056;2023-05-25T11:12:47;101365.19;;;20.75;53.15
54369;BME280;40266;52.434;17.056;2023-05-25T11:15:30;101356.60;;;20.84;53.39
54369;BME280;40266;52.434;17.056;2023-05-25T11:18:13;101356.19;;;20.89;52.85
54369;BME280;40266;52.434;17.056;2023-05-25T11:21:14;101348.72;;;20.96;53.58
54369;BME280;40266;52.434;17.056;2023-05-25T11:24:11;101346.15;;;21.19;53.46
54369;BME280;40266;52.434;17.056;2023-05-25T11:26:58;101353.62;;;21.25;52.79
54369;BME280;40266;52.434;17.056;2023-05-25T11:29:43;101346.41;;;21.31;52.83
54369;BME280;40266;52.434;17.056;2023-05-25T11:32:26;101345.20;;;21.34;51.99
54369;BME280;40266;52.434;17.056;2023-05-25T11:35:10;101345.72;;;21.31;52.27
54369;BME280;40266;52.434;17.056;2023-05-25T11:37:53;101345.36;;;21.27;50.86
54369;BME280;40266;52.434;17.056;2023-05-25T11:40:36;101343.86;;;21.22;50.96
54369;BME280;40266;52.434;17.056;2023-05-25T11:43:23;101339.81;;;21.21;51.19
54369;BME280;40266;52.434;17.056;2023-05-25T11:46:10;101339.25;;;21.25;51.69
54369;BME280;40266;52.434;17.056;2023-05-25T11:48:54;101341.08;;;21.24;51.20
54369;BME280;40266;52.434;17.056;2023-05-25T11:51:37;101339.19;;;21.30;50.68
54369;BME280;40266;52.434;17.056;2023-05-25T11:54:26;101331.36;;;21.34;51.06
54369;BME280;40266;52.434;17.056;2023-05-25T11:57:27;101336.19;;;21.26;51.19
54369;BME280;40266;52.434;17.056;2023-05-25T12:00:11;101336.73;;;21.30;51.50
54369;BME280;40266;52.434;17.056;2023-05-25T12:02:55;101334.70;;;21.35;51.36
54369;BME280;40266;52.434;17.056;2023-05-25T12:05:39;101328.12;;;21.35;50.50
54369;BME280;40266;52.434;17.056;2023-05-25T12:08:36;101318.95;;;21.30;50.40
54369;BME280;40266;52.434;17.056;2023-05-25T12:11:33;101327.06;;;21.23;50.38
54369;BME280;40266;52.434;17.056;2023-05-25T12:14:17;101322.61;;;21.21;51.18
54369;BME280;40266;52.434;17.056;2023-05-25T12:17:00;101320.27;;;21.11;50.67
54369;BME280;40266;52.434;17.056;2023-05-25T12:19:43;101318.00;;;21.10;51.03
54369;BME280;40266;52.434;17.056;2023-05-25T12:22:27;101319.36;;;21.22;51.41
54369;BME280;40266;52.434;17.056;2023-05-25T12:25:11;101317.30;;;21.17;50.83
54369;BME280;40266;52.434;17.056;2023-05-25T12:28:11;101319.55;;;21.11;51.57
54369;BME280;40266;52.434;17.056;2023-05-25T12:30:54;101321.35;;;21.11;50.68
54369;BME280;40266;52.434;17.056;2023-05-25T12:33:37;101316.56;;;21.14;50.59
54369;BME280;40266;52.434;17.056;2023-05-25T12:36:56;101315.77;;;21.29;50.59
54369;BME280;40266;52.434;17.056;2023-05-25T12:39:38;101317.09;;;21.42;51.05
54369;BME280;40266;52.434;17.056;2023-05-25T12:42:21;101313.64;;;21.47;50.50
54369;BME280;40266;52.434;17.056;2023-05-25T12:45:06;101309.27;;;21.52;50.59
54369;BME280;40266;52.434;17.056;2023-05-25T12:47:49;101310.99;;;21.60;50.18
54369;BME280;40266;52.434;17.056;2023-05-25T12:50:33;101308.81;;;21.64;49.59
54369;BME280;40266;52.434;17.056;2023-05-25T12:53:16;101304.55;;;21.70;49.92
54369;BME280;40266;52.434;17.056;2023-05-25T12:56:02;101304.44;;;21.83;49.71
54369;BME280;40266;52.434;17.056;2023-05-25T12:58:46;101303.32;;;21.86;49.57
54369;BME280;40266;52.434;17.056;2023-05-25T13:01:29;101300.42;;;21.78;48.88
54369;BME280;40266;52.434;17.056;2023-05-25T13:04:13;101294.86;;;21.62;49.38
54369;BME280;40266;52.434;17.056;2023-05-25T13:06:56;101297.13;;;21.63;49.43
54369;BME280;40266;52.434;17.056;2023-05-25T13:09:39;101297.66;;;21.63;48.89
54369;BME280;40266;52.434;17.056;2023-05-25T13:12:23;101298.05;;;21.59;48.88
54369;BME280;40266;52.434;17.056;2023-05-25T13:15:06;101297.59;;;21.64;49.50
54369;BME280;40266;52.434;17.056;2023-05-25T13:17:50;101297.05;;;21.71;49.24
54369;BME280;40266;52.434;17.056;2023-05-25T13:20:34;101294.21;;;21.81;49.29
54369;BME280;40266;52.434;17.056;2023-05-25T13:23:18;101292.90;;;21.92;49.63
54369;BME280;40266;52.434;17.056;2023-05-25T13:26:01;101289.47;;;22.03;49.68
54369;BME280;40266;52.434;17.056;2023-05-25T13:28:45;101286.70;;;22.01;48.92
54369;BME280;40266;52.434;17.056;2023-05-25T13:31:28;101286.04;;;22.03;48.34
54369;BME280;40266;52.434;17.056;2023-05-25T13:34:11;101286.84;;;22.08;48.62
54369;BME280;40266;52.434;17.056;2023-05-25T13:36:54;101285.41;;;22.05;48.46
54369;BME280;40266;52.434;17.056;2023-05-25T13:39:38;101289.90;;;21.98;48.86
54369;BME280;40266;52.434;17.056;2023-05-25T13:42:21;101284.17;;;21.98;48.88
54369;BME280;40266;52.434;17.056;2023-05-25T13:45:05;101280.61;;;22.02;48.94
54369;BME280;40266;52.434;17.056;2023-05-25T13:47:48;101283.80;;;22.11;49.66
54369;BME280;40266;52.434;17.056;2023-05-25T13:50:32;101279.92;;;22.18;48.21
54369;BME280;40266;52.434;17.056;2023-05-25T13:53:15;101273.66;;;22.15;47.62
54369;BME280;40266;52.434;17.056;2023-05-25T13:55:58;101271.94;;;22.20;48.55
54369;BME280;40266;52.434;17.056;2023-05-25T13:58:42;101269.48;;;22.27;48.06
54369;BME280;40266;52.434;17.056;2023-05-25T14:01:25;101263.94;;;22.24;47.51
54369;BME280;40266;52.434;17.056;2023-05-25T14:04:10;101262.89;;;22.24;47.32
54369;BME280;40266;52.434;17.056;2023-05-25T14:06:56;101259.45;;;22.18;46.52
54369;BME280;40266;52.434;17.056;2023-05-25T14:09:39;101252.34;;;22.11;46.85
54369;BME280;40266;52.434;17.056;2023-05-25T14:12:22;101256.45;;;22.05;47.32
54369;BME280;40266;52.434;17.056;2023-05-25T14:15:06;101254.20;;;22.00;47.42
54369;BME280;40266;52.434;17.056;2023-05-25T14:17:49;101253.27;;;22.01;46.99
54369;BME280;40266;52.434;17.056;2023-05-25T14:20:32;101246.35;;;22.01;46.84
54369;BME280;40266;52.434;17.056;2023-05-25T14:23:19;101245.88;;;21.99;46.45
54369;BME280;40266;52.434;17.056;2023-05-25T14:26:03;101247.45;;;21.97;45.63